Carrier Princess — CZ3582 — position and weather

sailwx.info

Track history (hours):
 
Tides and Currents Weather Stations Pressure Air Temp Water Temp Dewpoint Dewpoint Depression Visibility Wind Speed Wind Dir Waves Ship Positions

Carrier Princess

Last reported at 2017-Mar-30 04:33 UTC. Time now 2017-Mar-30 04:54 UTC.
Position N 49°09' W 123°02'.

Length 112 m; draft 3 m.

Type: Cargo ship. MMSI: 316003656.

Date/timePositionNaut miles runAvg speedWind from/ knotsBaromVisibWave heightAir tempDewpointWater temp
2017-Mar-30 04:33N 49°09' W 123°02'0 0.0
2017-Mar-30 03:33N 49°09' W 123°02'0 0.0
2017-Mar-30 02:33N 49°09' W 123°02'0 0.0
2017-Mar-30 01:33N 49°09' W 123°02'0 0.0
2017-Mar-30 00:33N 49°09' W 123°02'0 0.0
2017-Mar-29 23:33N 49°09' W 123°02'0 0.0
2017-Mar-29 22:33N 49°09' W 123°02'0 0.0
2017-Mar-29 21:33N 49°09' W 123°02'0 0.0
2017-Mar-29 20:33N 49°09' W 123°02'0 0.0
2017-Mar-29 19:33N 49°09' W 123°02'0 0.0
2017-Mar-29 18:33N 49°09' W 123°02'0 0.0
2017-Mar-29 17:33N 49°09' W 123°02'0 0.0
2017-Mar-29 16:33N 49°09' W 123°02'0 0.0
2017-Mar-29 15:33N 49°09' W 123°02'1 0.7
2017-Mar-29 14:33N 49°08' W 123°03'8 8.3
2017-Mar-29 13:34N 49°07' W 123°16'1211.4
2017-Mar-29 12:33N 48°56' W 123°18'1111.2
2017-Mar-29 11:33N 48°45' W 123°22'4 4.0
2017-Mar-29 10:33N 48°41' W 123°24'0 0.0
2017-Mar-29 09:33N 48°41' W 123°24'5 4.8
2017-Mar-29 08:33N 48°45' W 123°21'1212.0
2017-Mar-29 07:33N 48°57' W 123°18'1110.8
2017-Mar-29 06:33N 49°07' W 123°11'6 5.9
2017-Mar-29 05:33N 49°09' W 123°02'0 0.0
2017-Mar-29 04:33N 49°09' W 123°02'0 0.0
2017-Mar-29 03:33N 49°09' W 123°02'0 0.0
2017-Mar-29 02:33N 49°09' W 123°02'0 0.0
2017-Mar-29 01:33N 49°09' W 123°02'0 0.0
2017-Mar-29 00:33N 49°09' W 123°02'0 0.0
2017-Mar-28 23:33N 49°09' W 123°02'0 0.0
2017-Mar-28 22:33N 49°09' W 123°02'0 0.0
2017-Mar-28 21:33N 49°09' W 123°02'0 0.0
2017-Mar-28 20:33N 49°09' W 123°02'0 0.0
2017-Mar-28 19:33N 49°09' W 123°02'0 0.0
2017-Mar-28 18:33N 49°09' W 123°02'0 0.0
2017-Mar-28 17:33N 49°09' W 123°02'0 0.0
2017-Mar-28 16:33N 49°09' W 123°02'0 0.0
2017-Mar-28 15:33N 49°09' W 123°02'0 0.5
2017-Mar-28 14:33N 49°08' W 123°03'7 6.8
2017-Mar-28 13:33N 49°08' W 123°13'1110.5
2017-Mar-28 12:33N 48°58' W 123°19'1211.9
2017-Mar-28 11:33N 48°46' W 123°21'5 5.3
2017-Mar-28 10:33N 48°41' W 123°24'0 0.0
2017-Mar-28 09:33N 48°41' W 123°24'5 4.8
2017-Mar-28 08:33N 48°45' W 123°21'1111.3
2017-Mar-28 07:33N 48°57' W 123°18'1211.7
2017-Mar-28 06:33N 49°08' W 123°13'7 7.2
2017-Mar-28 05:33N 49°09' W 123°02'0 0.1
2017-Mar-28 04:33N 49°09' W 123°02'0 0.0
2017-Mar-28 03:33N 49°09' W 123°02'0 0.0
2017-Mar-28 02:33N 49°09' W 123°02'0 0.0
2017-Mar-28 01:33N 49°09' W 123°02'0 0.0
2017-Mar-28 00:33N 49°09' W 123°02'0 0.0
2017-Mar-27 23:33N 49°09' W 123°02'0 0.0
2017-Mar-27 22:33N 49°09' W 123°02'0 0.0
2017-Mar-27 21:33N 49°09' W 123°02'0 0.0
2017-Mar-27 20:33N 49°09' W 123°02'0 0.0
2017-Mar-27 19:33N 49°09' W 123°02'0 0.0
2017-Mar-27 18:33N 49°09' W 123°02'0 0.0
2017-Mar-27 17:33N 49°09' W 123°02'0 0.0
2017-Mar-27 16:33N 49°09' W 123°02'0 0.0
2017-Mar-27 15:33N 49°09' W 123°02'0 0.0
2017-Mar-27 14:33N 49°09' W 123°02'0 0.0
2017-Mar-27 13:33N 49°09' W 123°02'0 0.0
2017-Mar-27 12:33N 49°09' W 123°02'0 0.0
2017-Mar-27 11:33N 49°09' W 123°02'0 0.0
2017-Mar-27 10:33N 49°09' W 123°02'0 0.0
2017-Mar-27 09:33N 49°09' W 123°02'0 0.0
2017-Mar-27 08:33N 49°09' W 123°02'0 0.0
2017-Mar-27 07:33N 49°09' W 123°02'0 0.0
2017-Mar-27 06:33N 49°09' W 123°02'0 0.0
2017-Mar-27 05:33N 49°09' W 123°02'0 0.0
2017-Mar-27 04:33N 49°09' W 123°02'0 0.0
2017-Mar-27 03:33N 49°09' W 123°02'0 0.0
2017-Mar-27 02:33N 49°09' W 123°02'0 0.0
2017-Mar-27 01:33N 49°09' W 123°02'0 0.0
2017-Mar-27 00:33N 49°09' W 123°02'0 0.0
2017-Mar-26 23:33N 49°09' W 123°02'0 0.0
2017-Mar-26 22:33N 49°09' W 123°02'0 0.0
2017-Mar-26 21:33N 49°09' W 123°02'0 0.0
2017-Mar-26 20:33N 49°09' W 123°02'0 0.0
2017-Mar-26 19:33N 49°09' W 123°02'0 0.0
2017-Mar-26 18:33N 49°09' W 123°02'0 0.0
2017-Mar-26 17:33N 49°09' W 123°02'0 0.0
2017-Mar-26 16:33N 49°09' W 123°02'0 0.0
2017-Mar-26 15:33N 49°09' W 123°02'0 0.0
2017-Mar-26 14:33N 49°09' W 123°02'0 0.0
2017-Mar-26 13:33N 49°09' W 123°02'0 0.0
2017-Mar-26 12:33N 49°09' W 123°02'0 0.0
2017-Mar-26 11:33N 49°09' W 123°02'0 0.0
2017-Mar-26 10:33N 49°09' W 123°02'0 0.0
2017-Mar-26 09:33N 49°09' W 123°02'0 0.0
2017-Mar-26 08:33N 49°09' W 123°02'0 0.0
2017-Mar-26 07:33N 49°09' W 123°02'0 0.0
2017-Mar-26 06:33N 49°09' W 123°02'0 0.0
2017-Mar-26 05:33N 49°09' W 123°02'0 0.0
2017-Mar-26 04:33N 49°09' W 123°02'0 0.0
2017-Mar-26 03:33N 49°09' W 123°02'0 0.0
2017-Mar-26 02:33N 49°09' W 123°02'0 0.0
2017-Mar-26 01:33N 49°09' W 123°02'0 0.0
2017-Mar-26 00:33N 49°09' W 123°02'0 0.0
2017-Mar-25 23:33N 49°09' W 123°02'0 0.0
2017-Mar-25 22:33N 49°09' W 123°02'0 0.0
2017-Mar-25 21:33N 49°09' W 123°02'0 0.0
2017-Mar-25 20:33N 49°09' W 123°02'0 0.0
2017-Mar-25 19:33N 49°09' W 123°02'0 0.0
2017-Mar-25 18:33N 49°09' W 123°02'0 0.0
2017-Mar-25 17:33N 49°09' W 123°02'0 0.0
2017-Mar-25 16:33N 49°09' W 123°02'0 0.0
2017-Mar-25 15:33N 49°09' W 123°02'0 0.1
2017-Mar-25 14:33N 49°09' W 123°02'3 2.7
2017-Mar-25 13:33N 49°07' W 123°05'10 9.9
2017-Mar-25 12:34N 49°02' W 123°19'1212.0
2017-Mar-25 11:33N 48°50' W 123°21'9 9.4
2017-Mar-25 10:33N 48°41' W 123°24'0 0.0
2017-Mar-25 09:33N 48°41' W 123°24'6 5.6
2017-Mar-25 08:33N 48°46' W 123°21'1111.1
2017-Mar-25 07:33N 48°57' W 123°18'1111.0
2017-Mar-25 06:33N 49°08' W 123°12'7 6.9
2017-Mar-25 05:33N 49°09' W 123°02'0 0.0
2017-Mar-25 04:33N 49°09' W 123°02'0 0.0
2017-Mar-25 03:33N 49°09' W 123°02'0 0.0
2017-Mar-25 02:33N 49°09' W 123°02'0 0.0
2017-Mar-25 01:33N 49°09' W 123°02'0 0.0
2017-Mar-25 00:33N 49°09' W 123°02'0 0.0
2017-Mar-24 23:33N 49°09' W 123°02'0 0.0
2017-Mar-24 22:33N 49°09' W 123°02'0 0.0
2017-Mar-24 21:33N 49°09' W 123°02'0 0.0
2017-Mar-24 20:33N 49°09' W 123°02'0 0.0
2017-Mar-24 19:33N 49°09' W 123°02'0 0.0
2017-Mar-24 18:33N 49°09' W 123°02'0 0.0
2017-Mar-24 17:33N 49°09' W 123°02'0 0.0
2017-Mar-24 16:33N 49°09' W 123°02'0 0.1
2017-Mar-24 15:33N 49°09' W 123°02'0 0.5
2017-Mar-24 14:33N 49°08' W 123°03'10 9.9
2017-Mar-24 13:33N 49°06' W 123°18'9 9.4
2017-Mar-24 12:33N 48°57' W 123°18'9 9.0
2017-Mar-24 11:33N 48°48' W 123°21'7 7.3
2017-Mar-24 10:33N 48°41' W 123°24'0 0.0
2017-Mar-24 09:33N 48°41' W 123°24'4 4.4
2017-Mar-24 08:33N 48°45' W 123°21'1111.2
2017-Mar-24 07:33N 48°56' W 123°18'1211.9
2017-Mar-24 06:33N 49°08' W 123°15'8 8.2
2017-Mar-24 05:33N 49°09' W 123°02'0 0.0
2017-Mar-24 04:33N 49°09' W 123°02'0 0.0
2017-Mar-24 03:33N 49°09' W 123°02'0 0.0
2017-Mar-24 02:33N 49°09' W 123°02'0 0.0
2017-Mar-24 01:33N 49°09' W 123°02'0 0.0
2017-Mar-24 00:33N 49°09' W 123°02'0 0.0
2017-Mar-23 23:33N 49°09' W 123°02'0 0.0
2017-Mar-23 22:33N 49°09' W 123°02'0 0.0
2017-Mar-23 21:33N 49°09' W 123°02'0 0.0
2017-Mar-23 20:33N 49°09' W 123°02'0 0.0
2017-Mar-23 19:33N 49°09' W 123°02'0 0.0
2017-Mar-23 18:33N 49°09' W 123°02'0 0.0
2017-Mar-23 17:33N 49°09' W 123°02'0 0.0
2017-Mar-23 16:33N 49°09' W 123°02'0 0.0
2017-Mar-23 15:33N 49°09' W 123°02'0 0.2
2017-Mar-23 14:33N 49°09' W 123°02'1211.9
2017-Mar-23 13:33N 49°05' W 123°20'1211.8
2017-Mar-23 12:33N 48°53' W 123°18'8 8.1
2017-Mar-23 11:33N 48°45' W 123°22'4 4.5
2017-Mar-23 10:33N 48°41' W 123°24'0 0.0
2017-Mar-23 09:33N 48°41' W 123°24'7 7.0
2017-Mar-23 08:33N 48°48' W 123°21'1211.8
2017-Mar-23 07:34N 48°60' W 123°19'10 9.7
2017-Mar-23 06:33N 49°07' W 123°08'5 4.6
2017-Mar-23 05:34N 49°09' W 123°02'0 0.0
2017-Mar-23 04:33N 49°09' W 123°02'0 0.0
2017-Mar-23 03:33N 49°09' W 123°02'0 0.0
2017-Mar-23 02:34N 49°09' W 123°02'0 0.0
2017-Mar-23 01:33N 49°09' W 123°02'0 0.0
2017-Mar-23 00:34N 49°09' W 123°02'0 0.0
2017-Mar-22 23:34N 49°09' W 123°02'0 0.0
2017-Mar-22 22:34N 49°09' W 123°02'0 0.0
2017-Mar-22 21:34N 49°09' W 123°02'0 0.0
2017-Mar-22 20:34N 49°09' W 123°02'0 0.0
2017-Mar-22 19:34N 49°09' W 123°02'0 0.0
2017-Mar-22 18:33N 49°09' W 123°02'0 0.0
2017-Mar-22 17:34N 49°09' W 123°02'0 0.0
2017-Mar-22 16:33N 49°09' W 123°02'0 0.0
2017-Mar-22 15:34N 49°09' W 123°02'0 0.0
2017-Mar-22 14:34N 49°09' W 123°02'4 4.0
2017-Mar-22 13:34N 49°07' W 123°07'1010.0
2017-Mar-22 12:34N 49°00' W 123°19'1312.5
2017-Mar-22 11:33N 48°48' W 123°21'7 6.7
2017-Mar-22 10:33N 48°41' W 123°24'0 0.0
2017-Mar-22 09:33N 48°41' W 123°24'7 6.7
2017-Mar-22 08:33N 48°48' W 123°21'1212.1
2017-Mar-22 07:33N 48°60' W 123°19'10 9.7
2017-Mar-22 06:33N 49°07' W 123°09'5 4.7
2017-Mar-22 05:33N 49°09' W 123°02'0 0.0
2017-Mar-22 04:33N 49°09' W 123°02'0 0.0
2017-Mar-22 03:33N 49°09' W 123°02'0 0.0
2017-Mar-22 02:33N 49°09' W 123°02'0 0.0
2017-Mar-22 01:33N 49°09' W 123°02'0 0.0
2017-Mar-22 00:33N 49°09' W 123°02'0 0.0
2017-Mar-21 23:33N 49°09' W 123°02'0 0.0
2017-Mar-21 22:33N 49°09' W 123°02'0 0.0
2017-Mar-21 21:33N 49°09' W 123°02'0 0.0
2017-Mar-21 20:33N 49°09' W 123°02'0 0.0
2017-Mar-21 19:33N 49°09' W 123°02'0 0.0
2017-Mar-21 18:33N 49°09' W 123°02'0 0.0
2017-Mar-21 17:33N 49°09' W 123°02'0 0.0
2017-Mar-21 16:33N 49°09' W 123°02'0 0.0
2017-Mar-21 15:33N 49°09' W 123°02'4 4.0
2017-Mar-21 14:34N 49°07' W 123°07'8 8.4
2017-Mar-21 13:33N 49°04' W 123°20'8 8.4
2017-Mar-21 12:33N 48°56' W 123°18'8 8.2
2017-Mar-21 11:33N 48°48' W 123°21'7 6.6
2017-Mar-21 10:33N 48°41' W 123°24'0 0.0
2017-Mar-21 09:33N 48°41' W 123°24'7 6.7
2017-Mar-21 08:33N 48°48' W 123°21'1212.5
2017-Mar-21 07:33N 48°60' W 123°19'10 9.7
2017-Mar-21 06:34N 49°07' W 123°09'5 4.7
2017-Mar-21 05:33N 49°09' W 123°02'0 0.1
2017-Mar-21 04:33N 49°09' W 123°02'0 0.0
2017-Mar-21 03:33N 49°09' W 123°02'0 0.0
2017-Mar-21 02:33N 49°09' W 123°02'0 0.0
2017-Mar-21 01:33N 49°09' W 123°02'0 0.0
2017-Mar-21 00:33N 49°09' W 123°02'0 0.0
2017-Mar-20 23:33N 49°09' W 123°02'0 0.0
2017-Mar-20 22:33N 49°09' W 123°02'0 0.0
2017-Mar-20 21:33N 49°09' W 123°02'0 0.0
2017-Mar-20 20:33N 49°09' W 123°02'0 0.0
2017-Mar-20 19:33N 49°09' W 123°02'0 0.0
2017-Mar-20 18:33N 49°09' W 123°02'0 0.0
2017-Mar-20 17:33N 49°09' W 123°02'0 0.0
2017-Mar-20 16:33N 49°09' W 123°02'0 0.0
2017-Mar-20 15:33N 49°09' W 123°02'0 0.0
2017-Mar-20 14:33N 49°09' W 123°02'0 0.0
2017-Mar-20 13:33N 49°09' W 123°02'0 0.0
2017-Mar-20 12:33N 49°09' W 123°02'0 0.0
2017-Mar-20 11:33N 49°09' W 123°02'0 0.0
2017-Mar-20 10:33N 49°09' W 123°02'0 0.0
2017-Mar-20 09:33N 49°09' W 123°02'0 0.0
2017-Mar-20 08:33N 49°09' W 123°02'0 0.0
2017-Mar-20 07:33N 49°09' W 123°02'0 0.0
2017-Mar-20 06:33N 49°09' W 123°02'0 0.0
2017-Mar-20 05:33N 49°09' W 123°02'0 0.0
2017-Mar-20 04:33N 49°09' W 123°02'  
Track history (hours):
 
Tides and Currents Weather Stations Pressure Air Temp Water Temp Dewpoint Dewpoint Depression Visibility Wind Speed Wind Dir Waves Ship Positions

Carrier Princess

Last reported at 2017-Mar-30 04:33 UTC. Time now 2017-Mar-30 04:54 UTC.
Position N 49°09' W 123°02'.

Length 112 m; draft 3 m.

Type: Cargo ship. MMSI: 316003656.

Date/timePositionNaut miles runAvg speedWind from/ knotsBaromVisibWave heightAir tempDewpointWater temp
2017-Mar-30 04:33N 49°09' W 123°02'0 0.0
2017-Mar-30 03:33N 49°09' W 123°02'0 0.0
2017-Mar-30 02:33N 49°09' W 123°02'0 0.0
2017-Mar-30 01:33N 49°09' W 123°02'0 0.0
2017-Mar-30 00:33N 49°09' W 123°02'0 0.0
2017-Mar-29 23:33N 49°09' W 123°02'0 0.0
2017-Mar-29 22:33N 49°09' W 123°02'0 0.0
2017-Mar-29 21:33N 49°09' W 123°02'0 0.0
2017-Mar-29 20:33N 49°09' W 123°02'0 0.0
2017-Mar-29 19:33N 49°09' W 123°02'0 0.0
2017-Mar-29 18:33N 49°09' W 123°02'0 0.0
2017-Mar-29 17:33N 49°09' W 123°02'0 0.0
2017-Mar-29 16:33N 49°09' W 123°02'0 0.0
2017-Mar-29 15:33N 49°09' W 123°02'1 0.7
2017-Mar-29 14:33N 49°08' W 123°03'8 8.3
2017-Mar-29 13:34N 49°07' W 123°16'1211.4
2017-Mar-29 12:33N 48°56' W 123°18'1111.2
2017-Mar-29 11:33N 48°45' W 123°22'4 4.0
2017-Mar-29 10:33N 48°41' W 123°24'0 0.0
2017-Mar-29 09:33N 48°41' W 123°24'5 4.8
2017-Mar-29 08:33N 48°45' W 123°21'1212.0
2017-Mar-29 07:33N 48°57' W 123°18'1110.8
2017-Mar-29 06:33N 49°07' W 123°11'6 5.9
2017-Mar-29 05:33N 49°09' W 123°02'0 0.0
2017-Mar-29 04:33N 49°09' W 123°02'0 0.0
2017-Mar-29 03:33N 49°09' W 123°02'0 0.0
2017-Mar-29 02:33N 49°09' W 123°02'0 0.0
2017-Mar-29 01:33N 49°09' W 123°02'0 0.0
2017-Mar-29 00:33N 49°09' W 123°02'0 0.0
2017-Mar-28 23:33N 49°09' W 123°02'0 0.0
2017-Mar-28 22:33N 49°09' W 123°02'0 0.0
2017-Mar-28 21:33N 49°09' W 123°02'0 0.0
2017-Mar-28 20:33N 49°09' W 123°02'0 0.0
2017-Mar-28 19:33N 49°09' W 123°02'0 0.0
2017-Mar-28 18:33N 49°09' W 123°02'0 0.0
2017-Mar-28 17:33N 49°09' W 123°02'0 0.0
2017-Mar-28 16:33N 49°09' W 123°02'0 0.0
2017-Mar-28 15:33N 49°09' W 123°02'0 0.5
2017-Mar-28 14:33N 49°08' W 123°03'7 6.8
2017-Mar-28 13:33N 49°08' W 123°13'1110.5
2017-Mar-28 12:33N 48°58' W 123°19'1211.9
2017-Mar-28 11:33N 48°46' W 123°21'5 5.3
2017-Mar-28 10:33N 48°41' W 123°24'0 0.0
2017-Mar-28 09:33N 48°41' W 123°24'5 4.8
2017-Mar-28 08:33N 48°45' W 123°21'1111.3
2017-Mar-28 07:33N 48°57' W 123°18'1211.7
2017-Mar-28 06:33N 49°08' W 123°13'7 7.2
2017-Mar-28 05:33N 49°09' W 123°02'0 0.1
2017-Mar-28 04:33N 49°09' W 123°02'0 0.0
2017-Mar-28 03:33N 49°09' W 123°02'0 0.0
2017-Mar-28 02:33N 49°09' W 123°02'0 0.0
2017-Mar-28 01:33N 49°09' W 123°02'0 0.0
2017-Mar-28 00:33N 49°09' W 123°02'0 0.0
2017-Mar-27 23:33N 49°09' W 123°02'0 0.0
2017-Mar-27 22:33N 49°09' W 123°02'0 0.0
2017-Mar-27 21:33N 49°09' W 123°02'0 0.0
2017-Mar-27 20:33N 49°09' W 123°02'0 0.0
2017-Mar-27 19:33N 49°09' W 123°02'0 0.0
2017-Mar-27 18:33N 49°09' W 123°02'0 0.0
2017-Mar-27 17:33N 49°09' W 123°02'0 0.0
2017-Mar-27 16:33N 49°09' W 123°02'0 0.0
2017-Mar-27 15:33N 49°09' W 123°02'0 0.0
2017-Mar-27 14:33N 49°09' W 123°02'0 0.0
2017-Mar-27 13:33N 49°09' W 123°02'0 0.0
2017-Mar-27 12:33N 49°09' W 123°02'0 0.0
2017-Mar-27 11:33N 49°09' W 123°02'0 0.0
2017-Mar-27 10:33N 49°09' W 123°02'0 0.0
2017-Mar-27 09:33N 49°09' W 123°02'0 0.0
2017-Mar-27 08:33N 49°09' W 123°02'0 0.0
2017-Mar-27 07:33N 49°09' W 123°02'0 0.0
2017-Mar-27 06:33N 49°09' W 123°02'0 0.0
2017-Mar-27 05:33N 49°09' W 123°02'0 0.0
2017-Mar-27 04:33N 49°09' W 123°02'0 0.0
2017-Mar-27 03:33N 49°09' W 123°02'0 0.0
2017-Mar-27 02:33N 49°09' W 123°02'0 0.0
2017-Mar-27 01:33N 49°09' W 123°02'0 0.0
2017-Mar-27 00:33N 49°09' W 123°02'0 0.0
2017-Mar-26 23:33N 49°09' W 123°02'0 0.0
2017-Mar-26 22:33N 49°09' W 123°02'0 0.0
2017-Mar-26 21:33N 49°09' W 123°02'0 0.0
2017-Mar-26 20:33N 49°09' W 123°02'0 0.0
2017-Mar-26 19:33N 49°09' W 123°02'0 0.0
2017-Mar-26 18:33N 49°09' W 123°02'0 0.0
2017-Mar-26 17:33N 49°09' W 123°02'0 0.0
2017-Mar-26 16:33N 49°09' W 123°02'0 0.0
2017-Mar-26 15:33N 49°09' W 123°02'0 0.0
2017-Mar-26 14:33N 49°09' W 123°02'0 0.0
2017-Mar-26 13:33N 49°09' W 123°02'0 0.0
2017-Mar-26 12:33N 49°09' W 123°02'0 0.0
2017-Mar-26 11:33N 49°09' W 123°02'0 0.0
2017-Mar-26 10:33N 49°09' W 123°02'0 0.0
2017-Mar-26 09:33N 49°09' W 123°02'0 0.0
2017-Mar-26 08:33N 49°09' W 123°02'0 0.0
2017-Mar-26 07:33N 49°09' W 123°02'0 0.0
2017-Mar-26 06:33N 49°09' W 123°02'0 0.0
2017-Mar-26 05:33N 49°09' W 123°02'0 0.0
2017-Mar-26 04:33N 49°09' W 123°02'0 0.0
2017-Mar-26 03:33N 49°09' W 123°02'0 0.0
2017-Mar-26 02:33N 49°09' W 123°02'0 0.0
2017-Mar-26 01:33N 49°09' W 123°02'0 0.0
2017-Mar-26 00:33N 49°09' W 123°02'0 0.0
2017-Mar-25 23:33N 49°09' W 123°02'0 0.0
2017-Mar-25 22:33N 49°09' W 123°02'0 0.0
2017-Mar-25 21:33N 49°09' W 123°02'0 0.0
2017-Mar-25 20:33N 49°09' W 123°02'0 0.0
2017-Mar-25 19:33N 49°09' W 123°02'0 0.0
2017-Mar-25 18:33N 49°09' W 123°02'0 0.0
2017-Mar-25 17:33N 49°09' W 123°02'0 0.0
2017-Mar-25 16:33N 49°09' W 123°02'0 0.0
2017-Mar-25 15:33N 49°09' W 123°02'0 0.1
2017-Mar-25 14:33N 49°09' W 123°02'3 2.7
2017-Mar-25 13:33N 49°07' W 123°05'10 9.9
2017-Mar-25 12:34N 49°02' W 123°19'1212.0
2017-Mar-25 11:33N 48°50' W 123°21'9 9.4
2017-Mar-25 10:33N 48°41' W 123°24'0 0.0
2017-Mar-25 09:33N 48°41' W 123°24'6 5.6
2017-Mar-25 08:33N 48°46' W 123°21'1111.1
2017-Mar-25 07:33N 48°57' W 123°18'1111.0
2017-Mar-25 06:33N 49°08' W 123°12'7 6.9
2017-Mar-25 05:33N 49°09' W 123°02'0 0.0
2017-Mar-25 04:33N 49°09' W 123°02'0 0.0
2017-Mar-25 03:33N 49°09' W 123°02'0 0.0
2017-Mar-25 02:33N 49°09' W 123°02'0 0.0
2017-Mar-25 01:33N 49°09' W 123°02'0 0.0
2017-Mar-25 00:33N 49°09' W 123°02'0 0.0
2017-Mar-24 23:33N 49°09' W 123°02'0 0.0
2017-Mar-24 22:33N 49°09' W 123°02'0 0.0
2017-Mar-24 21:33N 49°09' W 123°02'0 0.0
2017-Mar-24 20:33N 49°09' W 123°02'0 0.0
2017-Mar-24 19:33N 49°09' W 123°02'0 0.0
2017-Mar-24 18:33N 49°09' W 123°02'0 0.0
2017-Mar-24 17:33N 49°09' W 123°02'0 0.0
2017-Mar-24 16:33N 49°09' W 123°02'0 0.1
2017-Mar-24 15:33N 49°09' W 123°02'0 0.5
2017-Mar-24 14:33N 49°08' W 123°03'10 9.9
2017-Mar-24 13:33N 49°06' W 123°18'9 9.4
2017-Mar-24 12:33N 48°57' W 123°18'9 9.0
2017-Mar-24 11:33N 48°48' W 123°21'7 7.3
2017-Mar-24 10:33N 48°41' W 123°24'0 0.0
2017-Mar-24 09:33N 48°41' W 123°24'4 4.4
2017-Mar-24 08:33N 48°45' W 123°21'1111.2
2017-Mar-24 07:33N 48°56' W 123°18'1211.9
2017-Mar-24 06:33N 49°08' W 123°15'8 8.2
2017-Mar-24 05:33N 49°09' W 123°02'0 0.0
2017-Mar-24 04:33N 49°09' W 123°02'0 0.0
2017-Mar-24 03:33N 49°09' W 123°02'0 0.0
2017-Mar-24 02:33N 49°09' W 123°02'0 0.0
2017-Mar-24 01:33N 49°09' W 123°02'0 0.0
2017-Mar-24 00:33N 49°09' W 123°02'0 0.0
2017-Mar-23 23:33N 49°09' W 123°02'0 0.0
2017-Mar-23 22:33N 49°09' W 123°02'0 0.0
2017-Mar-23 21:33N 49°09' W 123°02'0 0.0
2017-Mar-23 20:33N 49°09' W 123°02'0 0.0
2017-Mar-23 19:33N 49°09' W 123°02'0 0.0
2017-Mar-23 18:33N 49°09' W 123°02'0 0.0
2017-Mar-23 17:33N 49°09' W 123°02'0 0.0
2017-Mar-23 16:33N 49°09' W 123°02'0 0.0
2017-Mar-23 15:33N 49°09' W 123°02'0 0.2
2017-Mar-23 14:33N 49°09' W 123°02'1211.9
2017-Mar-23 13:33N 49°05' W 123°20'1211.8
2017-Mar-23 12:33N 48°53' W 123°18'8 8.1
2017-Mar-23 11:33N 48°45' W 123°22'4 4.5
2017-Mar-23 10:33N 48°41' W 123°24'0 0.0
2017-Mar-23 09:33N 48°41' W 123°24'7 7.0
2017-Mar-23 08:33N 48°48' W 123°21'1211.8
2017-Mar-23 07:34N 48°60' W 123°19'10 9.7
2017-Mar-23 06:33N 49°07' W 123°08'5 4.6
2017-Mar-23 05:34N 49°09' W 123°02'0 0.0
2017-Mar-23 04:33N 49°09' W 123°02'0 0.0
2017-Mar-23 03:33N 49°09' W 123°02'0 0.0
2017-Mar-23 02:34N 49°09' W 123°02'0 0.0
2017-Mar-23 01:33N 49°09' W 123°02'0 0.0
2017-Mar-23 00:34N 49°09' W 123°02'0 0.0
2017-Mar-22 23:34N 49°09' W 123°02'0 0.0
2017-Mar-22 22:34N 49°09' W 123°02'0 0.0
2017-Mar-22 21:34N 49°09' W 123°02'0 0.0
2017-Mar-22 20:34N 49°09' W 123°02'0 0.0
2017-Mar-22 19:34N 49°09' W 123°02'0 0.0
2017-Mar-22 18:33N 49°09' W 123°02'0 0.0
2017-Mar-22 17:34N 49°09' W 123°02'0 0.0
2017-Mar-22 16:33N 49°09' W 123°02'0 0.0
2017-Mar-22 15:34N 49°09' W 123°02'0 0.0
2017-Mar-22 14:34N 49°09' W 123°02'4 4.0
2017-Mar-22 13:34N 49°07' W 123°07'1010.0
2017-Mar-22 12:34N 49°00' W 123°19'1312.5
2017-Mar-22 11:33N 48°48' W 123°21'7 6.7
2017-Mar-22 10:33N 48°41' W 123°24'0 0.0
2017-Mar-22 09:33N 48°41' W 123°24'7 6.7
2017-Mar-22 08:33N 48°48' W 123°21'1212.1
2017-Mar-22 07:33N 48°60' W 123°19'10 9.7
2017-Mar-22 06:33N 49°07' W 123°09'5 4.7
2017-Mar-22 05:33N 49°09' W 123°02'0 0.0
2017-Mar-22 04:33N 49°09' W 123°02'0 0.0
2017-Mar-22 03:33N 49°09' W 123°02'0 0.0
2017-Mar-22 02:33N 49°09' W 123°02'0 0.0
2017-Mar-22 01:33N 49°09' W 123°02'0 0.0
2017-Mar-22 00:33N 49°09' W 123°02'0 0.0
2017-Mar-21 23:33N 49°09' W 123°02'0 0.0
2017-Mar-21 22:33N 49°09' W 123°02'0 0.0
2017-Mar-21 21:33N 49°09' W 123°02'0 0.0
2017-Mar-21 20:33N 49°09' W 123°02'0 0.0
2017-Mar-21 19:33N 49°09' W 123°02'0 0.0
2017-Mar-21 18:33N 49°09' W 123°02'0 0.0
2017-Mar-21 17:33N 49°09' W 123°02'0 0.0
2017-Mar-21 16:33N 49°09' W 123°02'0 0.0
2017-Mar-21 15:33N 49°09' W 123°02'4 4.0
2017-Mar-21 14:34N 49°07' W 123°07'8 8.4
2017-Mar-21 13:33N 49°04' W 123°20'8 8.4
2017-Mar-21 12:33N 48°56' W 123°18'8 8.2
2017-Mar-21 11:33N 48°48' W 123°21'7 6.6
2017-Mar-21 10:33N 48°41' W 123°24'0 0.0
2017-Mar-21 09:33N 48°41' W 123°24'7 6.7
2017-Mar-21 08:33N 48°48' W 123°21'1212.5
2017-Mar-21 07:33N 48°60' W 123°19'10 9.7
2017-Mar-21 06:34N 49°07' W 123°09'5 4.7
2017-Mar-21 05:33N 49°09' W 123°02'0 0.1
2017-Mar-21 04:33N 49°09' W 123°02'0 0.0
2017-Mar-21 03:33N 49°09' W 123°02'0 0.0
2017-Mar-21 02:33N 49°09' W 123°02'0 0.0
2017-Mar-21 01:33N 49°09' W 123°02'0 0.0
2017-Mar-21 00:33N 49°09' W 123°02'0 0.0
2017-Mar-20 23:33N 49°09' W 123°02'0 0.0
2017-Mar-20 22:33N 49°09' W 123°02'0 0.0
2017-Mar-20 21:33N 49°09' W 123°02'0 0.0
2017-Mar-20 20:33N 49°09' W 123°02'0 0.0
2017-Mar-20 19:33N 49°09' W 123°02'0 0.0
2017-Mar-20 18:33N 49°09' W 123°02'0 0.0
2017-Mar-20 17:33N 49°09' W 123°02'0 0.0
2017-Mar-20 16:33N 49°09' W 123°02'0 0.0
2017-Mar-20 15:33N 49°09' W 123°02'0 0.0
2017-Mar-20 14:33N 49°09' W 123°02'0 0.0
2017-Mar-20 13:33N 49°09' W 123°02'0 0.0
2017-Mar-20 12:33N 49°09' W 123°02'0 0.0
2017-Mar-20 11:33N 49°09' W 123°02'0 0.0
2017-Mar-20 10:33N 49°09' W 123°02'0 0.0
2017-Mar-20 09:33N 49°09' W 123°02'0 0.0
2017-Mar-20 08:33N 49°09' W 123°02'0 0.0
2017-Mar-20 07:33N 49°09' W 123°02'0 0.0
2017-Mar-20 06:33N 49°09' W 123°02'0 0.0
2017-Mar-20 05:33N 49°09' W 123°02'0 0.0
2017-Mar-20 04:33N 49°09' W 123°02'  

Dump ship's entire track history